Time;durP1;ratioP1;P1;durP2;ratioP2;P2;SDS_P1;SDS_P2;PMS_P1;PMS_P2;Temp;Humidity;BMP_temperature;BMP_pressure;BME280_temperature;BME280_humidity;BME280_pressure;Samples;Min_cycle;Max_cycle;Signal;HPM_P1;HPM_P2
2024/03/29 00:01:29;;;;;;;1.00;0.90;;;;;;;7.56;68.58;95829.73;107648;1242;99338;-81
2024/03/29 00:03:56;;;;;;;1.00;0.80;;;;;;;7.54;68.50;95842.89;107749;1237;99764;-81
2024/03/29 00:06:22;;;;;;;2.10;0.60;;;;;;;7.44;68.53;95847.95;107850;1250;99301;-81
2024/03/29 00:08:49;;;;;;;1.20;0.80;;;;;;;7.38;68.66;95862.41;107740;1234;99272;-81
2024/03/29 00:11:15;;;;;;;0.90;0.40;;;;;;;7.34;68.66;95868.48;107757;1250;99368;-81
2024/03/29 00:13:41;;;;;;;0.50;0.30;;;;;;;7.28;68.59;95875.66;107727;1240;99352;-82
2024/03/29 00:16:08;;;;;;;1.30;0.80;;;;;;;7.20;68.44;95879.52;107758;1239;99360;-80
2024/03/29 00:18:34;;;;;;;1.30;0.50;;;;;;;7.11;68.63;95882.98;107780;1250;99593;-80
2024/03/29 00:21:01;;;;;;;1.60;0.50;;;;;;;7.04;68.75;95883.48;107620;1249;99799;-81
2024/03/29 00:23:28;;;;;;;0.90;0.50;;;;;;;7.01;69.00;95888.52;107783;1239;99825;-81
2024/03/29 00:25:57;;;;;;;1.30;0.50;;;;;;;7.00;69.21;95900.75;107811;1235;99270;-80
2024/03/29 00:28:24;;;;;;;0.50;0.50;;;;;;;6.99;69.33;95900.60;107759;1239;99253;-80
2024/03/29 00:30:50;;;;;;;0.50;0.50;;;;;;;6.97;69.28;95906.98;107768;1248;99249;-80
2024/03/29 00:33:17;;;;;;;2.10;0.50;;;;;;;6.95;69.49;95904.77;107782;1248;99264;-80
2024/03/29 00:35:43;;;;;;;0.50;0.40;;;;;;;6.93;69.49;95909.59;107823;1240;99248;-80
2024/03/29 00:38:09;;;;;;;1.70;0.50;;;;;;;6.91;69.57;95917.70;107754;1241;100383;-80
2024/03/29 00:40:36;;;;;;;1.40;0.50;;;;;;;6.87;69.64;95918.98;107816;1241;99267;-80
2024/03/29 00:43:03;;;;;;;1.00;0.70;;;;;;;6.85;69.71;95920.34;107785;1250;99248;-80
2024/03/29 00:45:29;;;;;;;1.30;0.40;;;;;;;6.87;69.72;95926.46;107839;1237;99352;-80
2024/03/29 00:47:55;;;;;;;0.40;0.40;;;;;;;6.87;69.78;95932.03;107755;1239;99268;-81
2024/03/29 00:50:22;;;;;;;1.80;0.70;;;;;;;6.87;70.02;95936.00;107806;1241;99257;-80
2024/03/29 00:52:48;;;;;;;1.10;0.60;;;;;;;6.84;69.90;95943.48;107785;1240;99261;-81
2024/03/29 00:55:15;;;;;;;1.10;0.50;;;;;;;6.87;70.05;95951.89;107866;1250;99353;-80
2024/03/29 00:57:41;;;;;;;0.80;0.70;;;;;;;6.88;70.21;95951.52;107774;1241;99279;-81
2024/03/29 01:00:09;;;;;;;1.40;0.60;;;;;;;6.89;70.34;95955.14;107799;1240;99278;-81
2024/03/29 01:02:36;;;;;;;0.70;0.70;;;;;;;6.88;70.32;95966.87;107830;1249;100495;-79
2024/03/29 01:05:03;;;;;;;1.40;0.80;;;;;;;6.89;70.47;95968.61;107779;1248;99374;-79
2024/03/29 01:07:29;;;;;;;0.60;0.50;;;;;;;6.87;70.52;95973.05;107749;1246;99898;-79
2024/03/29 01:09:56;;;;;;;1.80;0.50;;;;;;;6.84;70.55;95976.59;107793;1239;99351;-79
2024/03/29 01:12:22;;;;;;;2.10;0.80;;;;;;;6.79;70.97;95986.24;107785;1238;104945;-78
2024/03/29 01:14:49;;;;;;;3.20;1.00;;;;;;;6.75;70.88;95983.11;107741;1238;100403;-79
2024/03/29 01:17:15;;;;;;;0.90;0.50;;;;;;;6.72;70.81;95985.30;107777;1241;99297;-79
2024/03/29 01:19:41;;;;;;;1.00;0.60;;;;;;;6.72;70.82;95991.81;107887;1240;99269;-79
2024/03/29 01:22:08;;;;;;;1.00;0.70;;;;;;;6.72;71.15;96002.23;107727;1248;103409;-79
2024/03/29 01:24:34;;;;;;;1.70;0.60;;;;;;;6.71;71.50;96003.48;107742;1242;99324;-79
2024/03/29 01:27:01;;;;;;;1.00;0.80;;;;;;;6.66;71.92;96005.52;107742;1250;99271;-79
2024/03/29 01:29:27;;;;;;;0.90;0.70;;;;;;;6.62;71.77;96001.36;107865;1240;99285;-78
2024/03/29 01:31:54;;;;;;;0.90;0.90;;;;;;;6.62;71.51;96003.30;107372;1242;104021;-87
2024/03/29 01:34:20;;;;;;;1.80;0.80;;;;;;;6.62;71.66;95994.55;107747;1240;99251;-79
2024/03/29 01:36:47;;;;;;;0.80;0.50;;;;;;;6.61;71.92;95994.23;107715;1239;99271;-78
2024/03/29 01:39:15;;;;;;;0.80;0.80;;;;;;;6.60;71.79;96005.55;107859;1241;99967;-79
2024/03/29 01:41:41;;;;;;;0.90;0.60;;;;;;;6.59;71.57;96011.61;107749;1248;103888;-79
2024/03/29 01:44:08;;;;;;;0.70;0.70;;;;;;;6.59;71.42;96014.36;107836;1240;100542;-79
2024/03/29 01:46:37;;;;;;;1.40;1.10;;;;;;;6.57;71.53;96021.15;107576;1248;100386;-79
2024/03/29 01:49:05;;;;;;;1.20;0.80;;;;;;;6.54;71.62;96032.27;107486;1240;99362;-79
2024/03/29 01:51:37;;;;;;;0.60;0.60;;;;;;;6.53;71.50;96044.11;107566;1247;99776;-79
2024/03/29 01:54:04;;;;;;;1.20;0.70;;;;;;;6.53;71.42;96049.59;107491;1241;104752;-79
2024/03/29 01:56:31;;;;;;;1.80;1.00;;;;;;;6.51;71.44;96050.89;107560;1244;101249;-79
2024/03/29 01:58:59;;;;;;;5.30;0.60;;;;;;;6.46;71.50;96057.00;107831;1241;99343;-79
2024/03/29 02:01:27;;;;;;;0.80;0.80;;;;;;;6.41;71.62;96061.86;107815;1238;99949;-79
2024/03/29 02:03:56;;;;;;;1.00;0.80;;;;;;;6.36;71.61;96070.23;107827;1250;100148;-79
2024/03/29 02:06:23;;;;;;;1.00;0.70;;;;;;;6.33;71.69;96078.73;107771;1237;103273;-79
2024/03/29 02:08:52;;;;;;;1.40;0.70;;;;;;;6.30;71.75;96090.71;107575;1239;99281;-79
2024/03/29 02:11:18;;;;;;;0.80;0.70;;;;;;;6.29;71.75;96104.48;107834;1240;99986;-79
2024/03/29 02:13:45;;;;;;;1.20;0.80;;;;;;;6.28;71.76;96111.81;107442;1240;99403;-79
2024/03/29 02:16:12;;;;;;;1.40;1.10;;;;;;;6.26;71.81;96119.63;107686;1242;99299;-87
2024/03/29 02:18:38;;;;;;;2.10;1.10;;;;;;;6.23;71.78;96127.67;107791;1240;99354;-87
2024/03/29 02:21:05;;;;;;;1.00;0.90;;;;;;;6.25;71.74;96136.33;107753;1250;99313;-87
2024/03/29 02:23:35;;;;;;;1.70;0.70;;;;;;;6.24;71.83;96151.91;107751;1249;99325;-87
2024/03/29 02:26:01;;;;;;;3.00;0.60;;;;;;;6.22;71.92;96157.73;107791;1240;99813;-87
2024/03/29 02:28:28;;;;;;;0.90;0.70;;;;;;;6.20;71.66;96159.22;107637;1250;183706;-87
2024/03/29 02:30:54;;;;;;;1.80;1.10;;;;;;;6.21;71.66;96160.08;107705;1240;99339;-79
2024/03/29 02:33:23;;;;;;;1.50;0.70;;;;;;;6.21;71.66;96166.18;107693;1250;99700;-83
2024/03/29 02:35:50;;;;;;;2.10;1.00;;;;;;;6.20;71.86;96173.11;107809;1240;99907;-83
2024/03/29 02:38:16;;;;;;;1.10;0.80;;;;;;;6.16;72.01;96176.40;107895;1243;99334;-83
2024/03/29 02:40:43;;;;;;;1.90;0.80;;;;;;;6.13;71.97;96182.02;107898;1240;99264;-82
2024/03/29 02:43:09;;;;;;;0.90;0.90;;;;;;;6.12;71.99;96186.48;107922;1250;99270;-83
2024/03/29 02:45:36;;;;;;;1.30;0.80;;;;;;;6.11;72.15;96191.09;107925;1240;99735;-81
2024/03/29 02:48:02;;;;;;;1.90;0.90;;;;;;;6.07;72.11;96196.62;107725;1235;99662;-82
2024/03/29 02:50:28;;;;;;;1.10;0.90;;;;;;;6.06;72.00;96204.86;107557;1240;99343;-82
2024/03/29 02:52:55;;;;;;;1.40;0.90;;;;;;;6.04;71.90;96205.61;107862;1241;99281;-83
2024/03/29 02:55:21;;;;;;;2.20;0.90;;;;;;;6.00;72.09;96212.33;107817;1241;99768;-82
2024/03/29 02:57:48;;;;;;;0.80;0.80;;;;;;;5.97;72.14;96220.89;107872;1242;99294;-83
2024/03/29 03:00:14;;;;;;;1.00;0.90;;;;;;;5.95;72.10;96225.14;107861;1239;99317;-82
2024/03/29 03:02:41;;;;;;;1.70;0.90;;;;;;;5.95;71.95;96227.23;107651;1248;100539;-78
2024/03/29 03:05:08;;;;;;;2.50;1.10;;;;;;;5.94;72.07;96234.45;107573;1240;99720;-78
2024/03/29 03:13:05;;;;;;;1.40;1.30;;;;;;;5.90;71.91;96257.06;107615;1238;99859;-83
2024/03/29 03:15:32;;;;;;;1.80;1.50;;;;;;;5.90;71.83;96261.64;107830;1236;99300;-81
2024/03/29 03:17:59;;;;;;;2.30;1.30;;;;;;;5.90;71.94;96263.41;107819;1241;99243;-81
2024/03/29 03:20:27;;;;;;;3.10;1.10;;;;;;;5.88;71.68;96264.02;107787;1241;99261;-81
2024/03/29 03:22:55;;;;;;;1.90;1.10;;;;;;;5.87;71.74;96271.61;107823;1249;99698;-81
2024/03/29 03:25:22;;;;;;;1.20;1.10;;;;;;;5.86;71.79;96276.68;107816;1241;99279;-80
2024/03/29 03:27:48;;;;;;;1.30;1.10;;;;;;;5.86;71.75;96283.85;107729;1236;100498;-82
2024/03/29 03:30:15;;;;;;;3.70;0.90;;;;;;;5.87;71.71;96295.27;107792;1241;99338;-80
2024/03/29 03:32:42;;;;;;;1.40;1.20;;;;;;;5.86;71.67;96297.66;107797;1241;99757;-83
2024/03/29 03:35:09;;;;;;;1.30;1.10;;;;;;;5.85;71.65;96293.83;107744;1248;99290;-83
2024/03/29 03:37:35;;;;;;;1.70;1.20;;;;;;;5.85;71.73;96289.59;107807;1241;99922;-84
2024/03/29 03:40:01;;;;;;;1.40;1.20;;;;;;;5.82;71.72;96288.06;107858;1241;99322;-83
2024/03/29 03:42:28;;;;;;;2.00;1.50;;;;;;;5.72;71.81;96284.70;107925;1235;99741;-83
2024/03/29 03:44:54;;;;;;;3.40;2.20;;;;;;;5.62;71.94;96287.35;107860;1241;99568;-83
2024/03/29 03:47:21;;;;;;;4.30;2.70;;;;;;;5.53;72.07;96291.56;107864;1239;99376;-79
2024/03/29 03:49:47;;;;;;;5.70;3.00;;;;;;;5.47;72.23;96289.57;107883;1236;99262;-83
2024/03/29 03:52:13;;;;;;;6.30;3.20;;;;;;;5.39;72.29;96291.27;107941;1248;99201;-83
2024/03/29 03:54:40;;;;;;;3.50;2.30;;;;;;;5.34;72.42;96294.06;107712;1250;99725;-83
2024/03/29 03:57:06;;;;;;;3.90;2.70;;;;;;;5.34;72.53;96299.98;107857;1238;100498;-83
2024/03/29 03:59:32;;;;;;;3.30;2.20;;;;;;;5.32;72.64;96302.30;107877;1249;100494;-83
2024/03/29 04:01:59;;;;;;;2.70;2.00;;;;;;;5.30;72.72;96307.50;107779;1235;99204;-79
2024/03/29 04:04:25;;;;;;;2.30;1.80;;;;;;;5.25;72.90;96308.19;107768;1249;99647;-79
2024/03/29 04:06:51;;;;;;;3.60;2.90;;;;;;;5.22;72.96;96310.08;107768;1240;99404;-87
2024/03/29 04:09:18;;;;;;;3.70;2.70;;;;;;;5.17;73.15;96314.08;107754;1240;99251;-87
2024/03/29 04:11:44;;;;;;;2.50;2.30;;;;;;;5.15;73.21;96326.48;107811;1250;99258;-87
2024/03/29 04:14:11;;;;;;;2.10;1.80;;;;;;;5.11;73.13;96336.02;107792;1247;99331;-87
2024/03/29 04:16:37;;;;;;;2.40;1.30;;;;;;;5.10;73.27;96340.92;107768;1247;99277;-87
2024/03/29 04:19:04;;;;;;;1.60;1.40;;;;;;;5.09;73.30;96347.80;107797;1250;99352;-88
2024/03/29 04:21:30;;;;;;;3.90;1.80;;;;;;;5.11;73.26;96351.09;107843;1249;99409;-87
2024/03/29 04:23:57;;;;;;;2.00;1.70;;;;;;;5.12;73.19;96359.78;107751;1249;99739;-88
2024/03/29 04:26:23;;;;;;;3.40;1.80;;;;;;;5.11;73.24;96358.45;107765;1236;99354;-81
2024/03/29 04:28:49;;;;;;;2.90;1.70;;;;;;;5.03;73.19;96366.51;107743;1248;99368;-81
2024/03/29 04:31:16;;;;;;;2.20;1.70;;;;;;;4.98;73.27;96369.23;107818;1238;99271;-81
2024/03/29 04:33:42;;;;;;;2.20;1.70;;;;;;;4.92;73.29;96370.23;107760;1240;99923;-81
2024/03/29 04:36:09;;;;;;;2.70;1.90;;;;;;;4.86;73.29;96372.08;107747;1247;99272;-81
2024/03/29 04:38:35;;;;;;;3.10;1.70;;;;;;;4.76;73.53;96378.27;107778;1239;99336;-81
2024/03/29 04:41:01;;;;;;;2.40;2.10;;;;;;;4.68;73.64;96376.39;107847;1240;99309;-81
2024/03/29 04:43:29;;;;;;;2.40;2.20;;;;;;;4.66;73.83;96375.60;107737;1241;100594;-81
2024/03/29 04:46:11;;;;;;;3.60;2.80;;;;;;;4.64;73.84;96381.67;107753;1250;99318;-81
2024/03/29 04:48:38;;;;;;;;;;;;;;;4.61;73.90;96382.23;107751;1247;99243;-82
2024/03/29 04:51:05;;;;;;;2.40;2.20;;;;;;;4.59;74.17;96390.13;107822;1248;99287;-82
2024/03/29 04:53:32;;;;;;;3.80;2.00;;;;;;;4.56;74.24;96392.42;107773;1247;99891;-82
2024/03/29 04:55:59;;;;;;;3.30;2.00;;;;;;;4.51;74.26;96407.81;107861;1249;99310;-82
2024/03/29 04:58:28;;;;;;;2.80;2.20;;;;;;;4.54;74.49;96417.24;107957;1238;99314;-82
2024/03/29 05:00:55;;;;;;;9.00;4.30;;;;;;;4.55;74.56;96416.06;107902;1250;104797;-83
2024/03/29 05:03:23;;;;;;;6.80;4.70;;;;;;;4.55;74.57;96414.52;107898;1238;99349;-83
2024/03/29 05:05:51;;;;;;;7.20;4.90;;;;;;;4.56;74.57;96418.77;107823;1239;99300;-83
2024/03/29 05:08:18;;;;;;;6.60;4.00;;;;;;;4.57;74.58;96429.06;107885;1247;99356;-82
2024/03/29 05:10:45;;;;;;;4.00;2.90;;;;;;;4.58;74.63;96437.11;107908;1239;99691;-82
2024/03/29 05:13:12;;;;;;;5.30;3.10;;;;;;;4.60;74.87;96440.62;107952;1247;99342;-83
2024/03/29 05:15:39;;;;;;;4.60;3.00;;;;;;;4.63;74.87;96437.97;107872;1248;99348;-82
2024/03/29 05:18:05;;;;;;;4.90;3.00;;;;;;;4.67;74.92;96439.23;107835;1241;99275;-83
2024/03/29 05:20:32;;;;;;;3.80;2.90;;;;;;;4.69;74.92;96434.02;107946;1235;99749;-83
2024/03/29 05:22:59;;;;;;;4.00;2.60;;;;;;;4.69;74.93;96431.84;107874;1235;103801;-83
2024/03/29 05:25:27;;;;;;;4.50;4.00;;;;;;;4.70;74.89;96437.30;107756;1249;99273;-81
2024/03/29 05:27:53;;;;;;;8.80;5.50;;;;;;;4.70;75.12;96442.90;107767;1240;99733;-81
2024/03/29 05:30:20;;;;;;;5.50;3.90;;;;;;;4.73;75.17;96442.28;107750;1238;99268;-81
2024/03/29 05:32:46;;;;;;;8.20;4.10;;;;;;;4.75;75.28;96439.00;107780;1238;100499;-81
2024/03/29 05:35:14;;;;;;;9.00;5.00;;;;;;;4.78;75.41;96432.48;107795;1238;100540;-81
2024/03/29 05:37:41;;;;;;;10.00;5.60;;;;;;;4.83;75.53;96431.85;107754;1238;99496;-81
2024/03/29 05:40:09;;;;;;;8.30;4.70;;;;;;;4.86;75.50;96427.73;107757;1239;99293;-80
2024/03/29 05:42:37;;;;;;;5.20;3.20;;;;;;;4.90;75.48;96438.30;107714;1246;99305;-81
2024/03/29 05:45:27;;;;;;;4.50;2.70;;;;;;;4.92;75.57;96446.14;107627;1239;104831;-83
2024/03/29 05:47:57;;;;;;;5.50;2.50;;;;;;;4.98;75.80;96443.56;107838;1235;101741;-83
2024/03/29 05:50:25;;;;;;;2.80;2.30;;;;;;;5.05;75.81;96452.64;107857;1239;100043;-82
2024/03/29 05:52:52;;;;;;;3.90;2.50;;;;;;;5.12;75.75;96461.34;107913;1247;99373;-82
2024/03/29 05:55:19;;;;;;;3.70;2.50;;;;;;;5.20;75.61;96462.60;107868;1235;100531;-82
2024/03/29 05:57:46;;;;;;;5.10;2.50;;;;;;;5.27;75.62;96462.60;107850;1247;99352;-83
2024/03/29 06:00:14;;;;;;;4.40;2.10;;;;;;;5.33;75.61;96469.60;107835;1240;99340;-82
2024/03/29 06:02:42;;;;;;;2.50;2.00;;;;;;;5.40;75.67;96469.94;107696;1249;99396;-83
2024/03/29 06:05:09;;;;;;;5.90;2.40;;;;;;;5.47;75.75;96481.80;107875;1250;99275;-81
2024/03/29 06:07:36;;;;;;;3.00;2.40;;;;;;;5.53;75.88;96485.48;107777;1240;99722;-81
2024/03/29 06:10:04;;;;;;;3.00;2.70;;;;;;;5.59;75.98;96492.00;107758;1238;99780;-81
2024/03/29 06:12:33;;;;;;;2.70;2.10;;;;;;;5.65;75.91;96489.67;107860;1237;99292;-81
2024/03/29 06:17:44;;;;;;;3.20;2.30;;;;;;;5.90;74.99;96493.89;107736;1240;100448;-78
2024/03/29 06:20:11;;;;;;;3.80;2.50;;;;;;;6.01;74.75;96496.85;107754;1242;99347;-77
2024/03/29 06:22:37;;;;;;;4.00;3.00;;;;;;;6.11;74.42;96490.88;107758;1247;99277;-83
2024/03/29 06:25:04;;;;;;;3.70;2.50;;;;;;;6.20;74.29;96494.27;107749;1239;99300;-83
2024/03/29 06:27:33;;;;;;;2.90;2.30;;;;;;;6.29;74.13;96494.55;107906;1238;99281;-83
2024/03/29 06:29:59;;;;;;;3.30;1.90;;;;;;;6.39;74.01;96491.23;107925;1238;99763;-82
2024/03/29 06:32:26;;;;;;;1.90;1.60;;;;;;;6.48;73.97;96480.15;107924;1247;99890;-78
2024/03/29 06:34:52;;;;;;;2.90;1.50;;;;;;;6.57;73.53;96475.39;107882;1238;100517;-78
2024/03/29 06:37:20;;;;;;;2.40;1.50;;;;;;;6.66;73.52;96470.33;107922;1238;100429;-78
2024/03/29 06:39:47;;;;;;;2.80;1.40;;;;;;;6.77;73.32;96465.60;107757;1238;99803;-78
2024/03/29 06:42:14;;;;;;;4.30;1.90;;;;;;;6.87;73.19;96465.00;107762;1238;100511;-82
2024/03/29 06:44:40;;;;;;;2.20;1.50;;;;;;;6.96;72.84;96460.48;107881;1241;99306;-83
2024/03/29 06:47:08;;;;;;;2.30;1.40;;;;;;;7.06;72.41;96457.55;107675;1239;99294;-80
2024/03/29 06:49:35;;;;;;;2.60;1.50;;;;;;;7.17;72.28;96461.89;107751;1250;99295;-81
2024/03/29 06:52:01;;;;;;;3.00;1.30;;;;;;;7.28;72.03;96455.89;107841;1238;99919;-81
2024/03/29 06:54:29;;;;;;;2.00;1.60;;;;;;;7.38;71.70;96444.23;107841;1238;100596;-81
2024/03/29 06:56:56;;;;;;;2.70;1.40;;;;;;;7.47;71.46;96443.44;107794;1247;99408;-80
2024/03/29 06:59:23;;;;;;;2.30;1.50;;;;;;;7.55;71.15;96445.66;107749;1236;99955;-82
2024/03/29 07:01:51;;;;;;;1.20;1.10;;;;;;;7.64;71.07;96447.02;107681;1243;99264;-81
2024/03/29 07:04:20;;;;;;;3.00;2.00;;;;;;;7.74;71.26;96443.11;107833;1248;99256;-82
2024/03/29 07:06:50;;;;;;;4.00;1.60;;;;;;;7.85;71.49;96446.92;107767;1245;100053;-81
2024/03/29 07:09:18;;;;;;;2.90;1.50;;;;;;;7.96;71.47;96448.87;107741;1239;106480;-81
2024/03/29 07:11:49;;;;;;;2.20;1.30;;;;;;;8.09;71.12;96449.55;107770;1238;99301;-81
2024/03/29 07:14:17;;;;;;;3.20;1.30;;;;;;;8.21;70.50;96452.34;107770;1250;100234;-81
2024/03/29 07:16:44;;;;;;;3.00;1.20;;;;;;;8.34;69.84;96456.61;107630;1248;104446;-81
2024/03/29 07:19:13;;;;;;;1.50;1.00;;;;;;;8.49;69.00;96459.17;107798;1243;101145;-83
2024/03/29 07:21:46;;;;;;;2.20;1.00;;;;;;;8.61;68.81;96447.71;107515;1248;100613;-83
2024/03/29 07:24:13;;;;;;;1.20;0.90;;;;;;;8.76;68.28;96431.21;107814;1238;99228;-82
2024/03/29 07:26:40;;;;;;;3.00;0.90;;;;;;;8.90;67.86;96420.21;107844;1247;99186;-83
2024/03/29 07:29:06;;;;;;;1.30;0.80;;;;;;;9.04;67.35;96416.53;107779;1243;99399;-82
2024/03/29 07:31:34;;;;;;;1.40;0.90;;;;;;;9.15;66.12;96422.19;107837;1238;99280;-78
2024/03/29 07:34:00;;;;;;;1.00;0.70;;;;;;;9.28;66.09;96436.89;107846;1250;99364;-78
2024/03/29 07:36:31;;;;;;;2.30;1.10;;;;;;;9.48;65.70;96440.98;107872;1238;99336;-78
2024/03/29 07:39:01;;;;;;;1.20;0.80;;;;;;;9.73;65.22;96435.90;107822;1235;104968;-77
2024/03/29 07:41:27;;;;;;;1.90;1.00;;;;;;;10.08;65.09;96426.27;107720;1235;100321;-78
2024/03/29 07:43:59;;;;;;;2.10;0.90;;;;;;;10.43;64.33;96419.55;107702;1239;99948;-77
2024/03/29 07:46:30;;;;;;;4.60;1.20;;;;;;;10.82;63.86;96407.27;107683;1238;99175;-82
2024/03/29 07:48:57;;;;;;;1.70;0.80;;;;;;;11.24;63.36;96400.15;108082;1238;99269;-82
2024/03/29 07:51:23;;;;;;;1.50;0.80;;;;;;;11.57;62.34;96402.25;107921;1238;99272;-83
2024/03/29 07:53:50;;;;;;;2.00;0.80;;;;;;;11.90;60.86;96405.04;107882;1238;99342;-84
2024/03/29 07:56:17;;;;;;;1.30;0.50;;;;;;;12.18;60.09;96406.70;107905;1247;100537;-82
2024/03/29 07:58:44;;;;;;;2.90;0.90;;;;;;;12.47;60.23;96415.79;107796;1238;99763;-82
2024/03/29 08:01:10;;;;;;;1.30;0.90;;;;;;;12.83;59.15;96428.29;107942;1235;100522;-82
2024/03/29 08:03:37;;;;;;;2.70;1.10;;;;;;;13.13;58.10;96436.59;107887;1240;100543;-82
2024/03/29 08:06:04;;;;;;;1.50;1.00;;;;;;;13.33;57.73;96433.11;107966;1244;99284;-82
2024/03/29 08:08:32;;;;;;;1.50;0.70;;;;;;;13.60;56.43;96438.42;107967;1235;99249;-84
2024/03/29 08:10:59;;;;;;;3.20;1.00;;;;;;;13.86;55.30;96441.20;107793;1238;105091;-82
2024/03/29 08:13:26;;;;;;;2.20;0.70;;;;;;;14.13;54.50;96453.85;107872;1250;99253;-83
2024/03/29 08:15:58;;;;;;;1.30;0.90;;;;;;;14.39;54.73;96451.77;107830;1238;99902;-84
2024/03/29 08:18:25;;;;;;;1.50;0.60;;;;;;;14.79;52.97;96451.66;107622;1238;99290;-79
2024/03/29 08:20:52;;;;;;;3.20;0.90;;;;;;;15.13;52.42;96456.02;107880;1242;99374;-77
2024/03/29 08:23:18;;;;;;;1.60;0.80;;;;;;;15.44;51.95;96454.77;107835;1242;99614;-78
2024/03/29 08:25:45;;;;;;;2.70;0.80;;;;;;;15.79;50.63;96458.46;107817;1241;99197;-77
2024/03/29 08:28:11;;;;;;;0.80;0.60;;;;;;;16.11;50.88;96464.00;107784;1247;99301;-77
2024/03/29 08:30:37;;;;;;;0.80;0.60;;;;;;;16.37;49.91;96465.03;107744;1238;99372;-77
2024/03/29 08:33:04;;;;;;;1.30;0.70;;;;;;;16.63;49.35;96465.21;107699;1238;99365;-77
2024/03/29 08:35:32;;;;;;;1.10;0.60;;;;;;;16.86;48.05;96467.41;107877;1240;99378;-83
2024/03/29 08:38:00;;;;;;;0.80;0.60;;;;;;;17.06;47.23;96469.08;107609;1241;100566;-78
2024/03/29 08:40:32;;;;;;;5.10;0.70;;;;;;;17.16;46.73;96469.22;107686;1246;100523;-78
2024/03/29 08:42:58;;;;;;;0.80;0.40;;;;;;;17.33;45.92;96470.01;107831;1239;103835;-78
2024/03/29 08:45:25;;;;;;;0.90;0.60;;;;;;;17.51;45.61;96476.06;107821;1238;99334;-78
2024/03/29 08:47:53;;;;;;;2.30;0.70;;;;;;;17.73;45.00;96476.93;107754;1241;99403;-78
2024/03/29 08:50:20;;;;;;;2.60;0.60;;;;;;;17.84;44.29;96471.34;107753;1247;100546;-77
2024/03/29 08:52:46;;;;;;;0.80;0.40;;;;;;;18.01;44.13;96471.13;107774;1238;100502;-78
2024/03/29 08:55:13;;;;;;;1.00;0.60;;;;;;;18.11;43.75;96475.44;107860;1235;100513;-78
2024/03/29 08:57:39;;;;;;;1.50;0.30;;;;;;;18.13;42.40;96474.05;107849;1240;100541;-78
2024/03/29 09:00:07;;;;;;;1.80;0.70;;;;;;;18.20;42.39;96473.59;107754;1239;99278;-78
2024/03/29 09:02:37;;;;;;;1.70;0.70;;;;;;;18.38;42.45;96474.52;107759;1238;99342;-83
2024/03/29 09:05:04;;;;;;;1.10;0.70;;;;;;;18.54;42.13;96467.91;107624;1235;103563;-84
2024/03/29 09:07:30;;;;;;;3.10;0.60;;;;;;;18.68;40.67;96465.48;107466;1238;100527;-83
2024/03/29 09:09:57;;;;;;;1.50;0.40;;;;;;;18.65;40.32;96463.92;107680;1249;99676;-84
2024/03/29 09:12:23;;;;;;;0.70;0.50;;;;;;;18.51;38.69;96462.48;107712;1238;99365;-88
2024/03/29 09:14:50;;;;;;;1.00;0.70;;;;;;;18.36;39.13;96464.64;107659;1249;103801;-88
2024/03/29 09:17:17;;;;;;;1.20;1.00;;;;;;;18.36;39.51;96457.75;107618;1238;99330;-82
2024/03/29 09:19:44;;;;;;;1.40;0.80;;;;;;;18.45;39.51;96459.23;107725;1236;99313;-80
2024/03/29 09:22:10;;;;;;;0.90;0.60;;;;;;;18.53;38.98;96456.22;107860;1235;99291;-81
2024/03/29 09:24:37;;;;;;;1.40;0.80;;;;;;;18.65;38.54;96448.17;107839;1243;99856;-81
2024/03/29 09:27:04;;;;;;;1.20;0.60;;;;;;;18.77;38.39;96441.79;107881;1238;101419;-81
2024/03/29 09:29:30;;;;;;;1.30;0.50;;;;;;;18.96;38.17;96437.57;107955;1237;99764;-80
2024/03/29 09:31:57;;;;;;;1.10;0.60;;;;;;;19.17;38.22;96437.95;107476;1250;99417;-80
2024/03/29 09:34:23;;;;;;;1.10;0.50;;;;;;;19.41;38.13;96437.21;107848;1236;99481;-86
2024/03/29 09:36:50;;;;;;;0.80;0.70;;;;;;;19.65;37.62;96435.37;107767;1248;101208;-84
2024/03/29 09:39:16;;;;;;;1.20;0.60;;;;;;;19.94;36.37;96438.06;107826;1240;99366;-85
2024/03/29 09:41:45;;;;;;;0.90;0.60;;;;;;;20.08;36.46;96440.29;107816;1241;99365;-82
2024/03/29 09:44:12;;;;;;;1.30;0.30;;;;;;;20.13;34.46;96440.83;107833;1239;99292;-85
2024/03/29 09:46:41;;;;;;;2.00;0.60;;;;;;;19.96;33.82;96435.24;107798;1239;100495;-80
2024/03/29 09:49:07;;;;;;;0.40;0.40;;;;;;;19.89;33.44;96432.34;107752;1248;99305;-79
2024/03/29 09:51:35;;;;;;;0.40;0.30;;;;;;;20.01;34.04;96432.16;107762;1240;100073;-79
2024/03/29 09:54:03;;;;;;;1.50;0.60;;;;;;;20.10;34.18;96434.50;107676;1249;99274;-87
2024/03/29 09:56:30;;;;;;;0.50;0.30;;;;;;;20.29;34.12;96437.86;107493;1243;99727;-80
2024/03/29 09:58:57;;;;;;;0.80;0.30;;;;;;;20.33;33.47;96441.57;107382;1244;99285;-81
2024/03/29 10:01:24;;;;;;;0.90;0.40;;;;;;;20.31;33.44;96438.25;107608;1238;100390;-87
2024/03/29 10:03:50;;;;;;;0.50;0.40;;;;;;;20.53;32.67;96435.38;107757;1235;99350;-86
2024/03/29 10:06:19;;;;;;;2.00;0.60;;;;;;;20.66;33.19;96432.27;107879;1248;100501;-88
2024/03/29 10:08:46;;;;;;;0.90;0.50;;;;;;;20.92;33.66;96433.42;107858;1240;104755;-88
2024/03/29 10:11:16;;;;;;;1.10;0.50;;;;;;;21.13;31.84;96428.27;107760;1238;99300;-87
2024/03/29 10:13:44;;;;;;;1.50;1.10;;;;;;;21.18;32.56;96425.73;107695;1237;100763;-86
2024/03/29 10:16:12;;;;;;;1.00;0.40;;;;;;;21.26;32.84;96430.37;107733;1238;99250;-81
2024/03/29 10:18:43;;;;;;;0.90;0.30;;;;;;;21.44;32.76;96433.04;107516;1237;99775;-81
2024/03/29 10:21:10;;;;;;;0.90;0.50;;;;;;;21.58;33.03;96428.92;107313;1244;104162;-81
2024/03/29 10:23:36;;;;;;;1.10;0.40;;;;;;;21.62;31.90;96428.23;107589;1241;99266;-81
2024/03/29 10:26:03;;;;;;;1.20;0.50;;;;;;;21.47;31.16;96424.25;107614;1239;100505;-81
2024/03/29 10:28:33;;;;;;;0.70;0.50;;;;;;;21.23;29.33;96424.65;107429;1243;99311;-80
2024/03/29 10:31:00;;;;;;;1.50;0.50;;;;;;;21.07;29.21;96419.48;107679;1238;99256;-81
2024/03/29 10:33:31;;;;;;;2.80;0.60;;;;;;;21.19;30.70;96412.31;107730;1240;103842;-81
2024/03/29 10:35:59;;;;;;;2.10;0.50;;;;;;;21.50;30.27;96420.79;107752;1238;100259;-81
2024/03/29 10:38:27;;;;;;;3.10;0.50;;;;;;;21.61;30.23;96417.53;107807;1248;99894;-81
2024/03/29 10:40:54;;;;;;;1.40;0.40;;;;;;;21.82;30.37;96409.13;107934;1236;99449;-82
2024/03/29 10:43:21;;;;;;;1.50;0.30;;;;;;;22.09;30.50;96403.64;107713;1235;99260;-82
2024/03/29 10:45:50;;;;;;;1.50;0.60;;;;;;;22.22;29.73;96405.70;107754;1244;99326;-83
2024/03/29 10:48:17;;;;;;;0.90;0.70;;;;;;;22.25;29.90;96411.94;107498;1237;100218;-82
2024/03/29 10:50:48;;;;;;;2.00;0.30;;;;;;;22.18;28.14;96418.61;107705;1238;99369;-81
2024/03/29 10:53:15;;;;;;;0.80;0.40;;;;;;;21.76;26.93;96417.46;107780;1238;99329;-82
2024/03/29 10:55:43;;;;;;;0.90;0.30;;;;;;;21.65;28.17;96413.61;107799;1239;99263;-82
2024/03/29 10:58:12;;;;;;;1.00;0.50;;;;;;;21.68;27.79;96408.51;107776;1250;104722;-81
2024/03/29 11:00:48;;;;;;;0.70;0.50;;;;;;;21.67;28.45;96409.84;107781;1249;101241;-82
2024/03/29 11:03:32;;;;;;;2.20;0.40;;;;;;;21.74;27.97;96405.20;107876;1238;99846;-82
2024/03/29 11:06:03;;;;;;;0.80;0.60;;;;;;;21.84;28.59;96396.23;107742;1239;99268;-82
2024/03/29 11:08:34;;;;;;;0.70;0.40;;;;;;;21.96;27.58;96393.90;107801;1248;100383;-80
2024/03/29 11:11:04;;;;;;;0.40;0.40;;;;;;;21.88;27.95;96381.36;107690;1238;104808;-85
2024/03/29 11:13:34;;;;;;;2.80;0.70;;;;;;;22.09;28.39;96376.09;107803;1237;101416;-86
2024/03/29 11:16:01;;;;;;;0.50;0.30;;;;;;;22.32;26.72;96370.52;107780;1249;99796;-86
2024/03/29 11:18:31;;;;;;;1.00;0.40;;;;;;;22.43;27.62;96360.34;107762;1240;99308;-84
2024/03/29 11:20:58;;;;;;;0.20;0.20;;;;;;;22.41;25.47;96354.06;107786;1245;99751;-86
2024/03/29 11:23:27;;;;;;;1.30;0.40;;;;;;;22.27;25.68;96343.23;107742;1243;99921;-86
2024/03/29 11:25:57;;;;;;;0.40;0.10;;;;;;;22.21;25.36;96335.92;107728;1240;101215;-85
2024/03/29 11:28:29;;;;;;;0.10;0.10;;;;;;;22.14;24.09;96338.77;107797;1248;99560;-82
2024/03/29 11:31:09;;;;;;;1.10;1.00;;;;;;;21.86;23.86;96326.00;107868;1241;99233;-82
2024/03/29 11:33:36;;;;;;;0.40;0.40;;;;;;;21.66;24.42;96328.67;107899;1238;99683;-83
2024/03/29 11:36:16;;;;;;;1.10;0.30;;;;;;;21.58;24.85;96320.30;107916;1239;99257;-84
2024/03/29 11:38:45;;;;;;;0.50;0.30;;;;;;;21.73;25.52;96316.27;107919;1238;100321;-82